createdAt,value
2018-07-27T00:01:16.427Z,3.50
2018-07-27T00:06:19.609Z,3.17
2018-07-27T00:11:22.811Z,3.30
2018-07-27T00:16:25.993Z,3.50
2018-07-27T00:21:29.158Z,3.33
2018-07-27T00:26:32.366Z,3.63
2018-07-27T00:31:35.598Z,3.57
2018-07-27T00:36:38.763Z,3.50
2018-07-27T00:41:41.938Z,3.20
2018-07-27T00:46:45.274Z,2.97
2018-07-27T00:51:48.443Z,3.27
2018-07-27T00:56:51.626Z,3.33
2018-07-27T01:01:54.819Z,3.40
2018-07-27T01:06:58.050Z,3.50
2018-07-27T01:12:01.231Z,3.60
2018-07-27T01:17:04.394Z,3.10
2018-07-27T01:22:07.606Z,3.53
2018-07-27T01:27:10.791Z,3.50
2018-07-27T01:32:13.994Z,3.80
2018-07-27T01:37:17.170Z,3.77
2018-07-27T01:42:20.339Z,3.50
2018-07-27T01:47:23.607Z,3.57
2018-07-27T01:52:26.830Z,3.40
2018-07-27T01:57:29.967Z,4.50
2018-07-27T02:02:33.126Z,4.67
2018-07-27T02:07:36.299Z,4.70
2018-07-27T02:12:39.291Z,4.90
2018-07-27T02:17:42.455Z,5.10
2018-07-27T02:22:45.643Z,5.43
2018-07-27T02:27:48.835Z,7.07
2018-07-27T02:32:52.016Z,7.13
2018-07-27T02:37:55.209Z,8.40
2018-07-27T02:42:58.422Z,10.23
2018-07-27T02:48:01.621Z,11.47
2018-07-27T02:53:04.907Z,11.63
2018-07-27T02:58:08.118Z,13.00
2018-07-27T03:03:11.327Z,15.00
2018-07-27T03:08:14.512Z,17.40
2018-07-27T03:13:17.679Z,17.87
2018-07-27T03:18:20.959Z,18.77
2018-07-27T03:23:24.130Z,23.40
2018-07-27T03:28:27.120Z,22.77
2018-07-27T03:33:30.309Z,22.27
2018-07-27T03:38:33.489Z,17.27
2018-07-27T03:43:36.700Z,13.63
2018-07-27T03:48:39.828Z,15.37
2018-07-27T03:53:43.015Z,16.17
2018-07-27T03:58:46.207Z,12.47
2018-07-27T04:03:49.411Z,9.10
2018-07-27T04:08:52.785Z,8.33
2018-07-27T04:13:55.970Z,10.80
2018-07-27T04:18:59.145Z,7.60
2018-07-27T04:24:02.338Z,6.60
2018-07-27T04:29:05.341Z,7.70
2018-07-27T04:37:48.252Z,7.40
2018-07-27T04:42:51.480Z,6.20
2018-07-27T04:47:54.644Z,5.57
2018-07-27T04:52:57.827Z,5.47
2018-07-27T04:58:01.024Z,4.60
2018-07-27T05:03:04.200Z,5.00
2018-07-27T05:08:07.380Z,4.07
2018-07-27T05:13:10.649Z,4.07
2018-07-27T05:18:14.062Z,6.87
2018-07-27T05:23:17.182Z,4.23
2018-07-27T05:28:20.407Z,4.60
2018-07-27T05:33:23.588Z,4.40
2018-07-27T05:38:26.874Z,4.60
2018-07-27T05:43:30.056Z,4.57
2018-07-27T05:48:33.235Z,4.23
2018-07-27T05:53:36.451Z,4.33
2018-07-27T05:58:39.631Z,4.60
2018-07-27T06:03:42.819Z,4.73
2018-07-27T06:08:45.996Z,4.67
2018-07-27T06:13:49.291Z,4.70
2018-07-27T06:18:52.465Z,4.63
2018-07-27T06:23:55.745Z,4.47
2018-07-27T06:28:58.808Z,4.90
2018-07-27T06:34:01.992Z,4.57
2018-07-27T06:39:07.626Z,4.47
2018-07-27T06:44:10.827Z,4.73
2018-07-27T06:49:14.068Z,4.87
2018-07-27T06:54:17.282Z,4.60
2018-07-27T06:59:20.466Z,4.70
2018-07-27T07:04:23.710Z,5.20
2018-07-27T07:09:26.911Z,4.80
2018-07-27T07:14:30.204Z,4.80
2018-07-27T07:19:33.388Z,4.97
2018-07-27T07:24:36.603Z,4.40
2018-07-27T07:29:39.886Z,4.70
2018-07-27T07:34:43.099Z,4.97
2018-07-27T07:39:46.336Z,4.77
2018-07-27T07:44:49.540Z,4.53
2018-07-27T07:49:52.726Z,4.53
2018-07-27T07:54:56.340Z,5.00
2018-07-27T07:59:59.536Z,4.63
2018-07-27T08:05:02.723Z,4.73
2018-07-27T08:10:05.956Z,4.43
2018-07-27T08:15:09.535Z,4.30
2018-07-27T08:20:12.735Z,5.10
2018-07-27T08:25:15.956Z,4.37
2018-07-27T08:30:19.143Z,4.73
2018-07-27T08:35:22.791Z,4.43
2018-07-27T08:40:25.988Z,4.50
2018-07-27T08:45:29.193Z,4.10
2018-07-27T08:50:32.421Z,4.60
2018-07-27T08:55:35.632Z,4.37
2018-07-27T09:00:50.187Z,4.43
2018-07-27T09:05:53.385Z,4.30
2018-07-27T09:10:57.601Z,3.63
2018-07-27T09:16:00.795Z,3.80
2018-07-27T09:21:03.996Z,3.10
2018-07-27T09:26:07.192Z,2.93
2018-07-27T09:31:10.447Z,3.23
2018-07-27T09:36:13.615Z,3.97
2018-07-27T09:41:16.799Z,3.50
2018-07-27T09:46:20.029Z,3.27
2018-07-27T09:51:24.373Z,2.90
2018-07-27T09:56:27.539Z,3.50
2018-07-27T10:01:30.728Z,3.23
2018-07-27T10:06:33.934Z,2.90
2018-07-27T10:11:37.130Z,3.67
2018-07-27T10:16:40.111Z,3.40
2018-07-27T10:21:43.307Z,3.67
2018-07-27T10:26:46.512Z,3.40
2018-07-27T10:31:49.717Z,3.10
2018-07-27T10:36:52.911Z,3.67
2018-07-27T10:41:56.134Z,2.93
2018-07-27T10:46:59.356Z,3.53
2018-07-27T10:52:02.587Z,3.70
2018-07-27T10:57:05.771Z,3.50
2018-07-27T11:02:08.999Z,3.63
2018-07-27T11:07:12.310Z,3.30
2018-07-27T11:12:15.496Z,2.80
2018-07-27T11:17:18.756Z,3.23
2018-07-27T11:22:21.903Z,3.17
2018-07-27T11:27:25.196Z,3.37
2018-07-27T11:32:28.397Z,3.80
2018-07-27T11:37:31.380Z,2.90
2018-07-27T11:42:34.582Z,3.10
2018-07-27T11:47:38.042Z,3.07
2018-07-27T11:52:41.244Z,3.30
2018-07-27T11:57:44.456Z,3.10
2018-07-27T12:02:47.698Z,2.90
2018-07-27T12:07:51.363Z,3.00
2018-07-27T12:12:54.567Z,3.00
2018-07-27T12:17:57.774Z,2.93
2018-07-27T12:23:00.962Z,3.20
2018-07-27T12:28:04.134Z,3.60
2018-07-27T12:33:07.556Z,3.00
2018-07-27T12:38:11.898Z,2.47
2018-07-27T12:43:14.898Z,2.50
2018-07-27T12:48:18.352Z,3.53
2018-07-27T12:53:21.585Z,2.47
2018-07-27T12:58:24.835Z,2.63
2018-07-27T13:03:28.058Z,2.30
2018-07-27T13:08:31.263Z,2.33
2018-07-27T13:13:34.449Z,1.93
2018-07-27T13:18:37.564Z,2.53
2018-07-27T13:23:50.964Z,2.83
2018-07-27T13:28:55.114Z,3.10
2018-07-27T13:34:17.044Z,2.50
2018-07-27T13:39:20.213Z,3.10
2018-07-27T13:44:23.436Z,3.00
2018-07-27T13:49:27.715Z,2.90
2018-07-27T13:54:32.406Z,3.20
2018-07-27T13:59:35.538Z,2.37
2018-07-27T14:04:38.851Z,3.60
2018-07-27T14:09:42.111Z,2.73
2018-07-27T14:14:45.279Z,2.70
2018-07-27T14:19:48.515Z,2.47
2018-07-27T14:24:51.683Z,1.90
2018-07-27T14:29:55.056Z,2.30
2018-07-27T14:34:58.305Z,2.40
2018-07-27T14:40:01.911Z,2.67
2018-07-27T14:45:05.234Z,2.40
2018-07-27T14:50:08.555Z,2.07
2018-07-27T14:55:11.764Z,2.50
2018-07-27T15:00:14.999Z,2.23
2018-07-27T15:05:18.295Z,2.40
2018-07-27T15:10:22.314Z,2.47
2018-07-27T15:15:25.513Z,2.37
2018-07-27T15:20:28.686Z,2.43
2018-07-27T15:25:32.467Z,2.70
2018-07-27T15:30:35.814Z,2.43
2018-07-27T15:35:39.257Z,2.40
2018-07-27T15:40:42.555Z,2.40
2018-07-27T15:45:45.903Z,2.30
2018-07-27T15:50:49.207Z,2.30
2018-07-27T15:55:53.099Z,2.23
2018-07-27T16:00:56.279Z,2.13
2018-07-27T16:05:59.300Z,2.40
2018-07-27T16:11:02.886Z,1.90
2018-07-27T16:16:06.290Z,2.47
2018-07-27T16:21:09.709Z,2.50
2018-07-27T16:26:13.026Z,2.40
2018-07-27T16:31:16.915Z,2.93
2018-07-27T16:36:20.118Z,2.53
2018-07-27T16:41:23.380Z,2.60
2018-07-27T16:46:26.864Z,2.60
2018-07-27T16:51:30.216Z,2.93
2018-07-27T16:56:33.506Z,2.87
2018-07-27T17:03:18.009Z,2.53
2018-07-27T17:08:21.244Z,3.07
2018-07-27T17:13:24.482Z,2.80
2018-07-27T17:18:27.651Z,2.97
2018-07-27T17:23:30.820Z,2.90
2018-07-27T17:28:34.504Z,2.93
2018-07-27T17:33:38.144Z,3.00
2018-07-27T17:38:41.381Z,3.13
2018-07-27T17:43:44.339Z,3.87
2018-07-27T17:48:47.330Z,3.60
2018-07-27T17:53:50.619Z,2.83
2018-07-27T17:58:54.324Z,4.10
2018-07-27T18:03:57.506Z,3.10
2018-07-27T18:09:00.698Z,4.57
2018-07-27T18:14:03.878Z,3.83
2018-07-27T18:19:07.414Z,4.57
2018-07-27T18:24:10.532Z,3.87
2018-07-27T18:29:13.710Z,4.57
2018-07-27T18:34:16.936Z,4.20
2018-07-27T18:39:20.139Z,4.93
2018-07-27T18:44:23.323Z,3.90
2018-07-27T18:49:26.497Z,3.90
2018-07-27T18:54:29.698Z,3.80
2018-07-27T18:59:32.870Z,3.77
2018-07-27T19:04:36.048Z,3.80
2018-07-27T19:09:39.246Z,4.20
2018-07-27T19:14:42.443Z,9.83
2018-07-27T19:19:45.632Z,3.80
2018-07-27T19:24:48.621Z,9.77
2018-07-27T19:29:51.799Z,21.60
2018-07-27T19:34:55.067Z,7.37
2018-07-27T19:39:58.246Z,4.03
2018-07-27T19:45:01.466Z,4.63
2018-07-27T19:50:04.931Z,4.30
2018-07-27T19:55:08.155Z,4.57
2018-07-27T20:00:11.331Z,4.33
2018-07-27T20:05:14.531Z,4.67
2018-07-27T20:10:17.701Z,4.33
2018-07-27T20:15:20.912Z,4.43
2018-07-27T20:20:24.068Z,4.73
2018-07-27T20:25:27.235Z,4.40
2018-07-27T20:30:30.410Z,4.50
2018-07-27T20:35:33.590Z,4.40
2018-07-27T20:40:36.771Z,4.70
2018-07-27T20:45:39.954Z,5.10
2018-07-27T20:50:43.132Z,4.60
2018-07-27T20:55:46.318Z,5.00
2018-07-27T21:00:49.511Z,5.47
2018-07-27T21:05:52.703Z,5.60
2018-07-27T21:10:55.869Z,5.63
2018-07-27T21:15:59.035Z,5.60
2018-07-27T21:21:02.216Z,6.17
2018-07-27T21:26:05.396Z,5.83
2018-07-27T21:31:08.606Z,5.87
2018-07-27T21:36:11.739Z,5.63
2018-07-27T21:41:14.923Z,5.80
2018-07-27T21:46:18.099Z,5.60
2018-07-27T21:51:21.262Z,5.37
2018-07-27T21:56:24.419Z,5.80
2018-07-27T22:01:27.600Z,5.93
2018-07-27T22:06:30.798Z,5.37
2018-07-27T22:11:33.995Z,5.63
2018-07-27T22:16:37.187Z,6.33
2018-07-27T22:21:40.371Z,5.93
2018-07-27T22:26:43.589Z,5.80
2018-07-27T22:31:46.768Z,6.00
2018-07-27T22:36:49.946Z,5.47
2018-07-27T22:41:53.134Z,5.73
2018-07-27T22:46:56.295Z,5.97
2018-07-27T22:51:59.467Z,5.70
2018-07-27T22:57:02.803Z,5.60
2018-07-27T23:02:05.983Z,5.23
2018-07-27T23:07:09.258Z,5.63
2018-07-27T23:12:12.488Z,6.10
2018-07-27T23:17:15.387Z,5.40
2018-07-27T23:22:18.579Z,5.37
2018-07-27T23:27:21.768Z,5.03
2018-07-27T23:32:24.964Z,5.03
2018-07-27T23:37:28.142Z,5.03
2018-07-27T23:42:31.339Z,4.80
2018-07-27T23:47:34.302Z,5.50
2018-07-27T23:52:37.507Z,5.03
2018-07-27T23:57:40.723Z,5.37
